createdAt,value
2019-04-05T00:00:02.000Z,8.687
2019-04-05T00:01:01.000Z,8.812
2019-04-05T00:02:02.000Z,8.875
2019-04-05T00:03:01.000Z,8.875
2019-04-05T00:04:01.000Z,8.937
2019-04-05T00:05:01.000Z,9
2019-04-05T00:06:02.000Z,9
2019-04-05T00:07:01.000Z,9.062
2019-04-05T00:08:01.000Z,9.062
2019-04-05T00:09:01.000Z,9.062
2019-04-05T00:10:02.000Z,9.062
2019-04-05T00:11:01.000Z,9.062
2019-04-05T00:12:02.000Z,9.062
2019-04-05T00:13:01.000Z,9.062
2019-04-05T00:14:01.000Z,9.062
2019-04-05T00:15:02.000Z,9.062
2019-04-05T00:16:02.000Z,9.062
2019-04-05T00:17:01.000Z,9.062
2019-04-05T00:18:01.000Z,9.062
2019-04-05T00:19:01.000Z,9
2019-04-05T00:20:01.000Z,9
2019-04-05T00:21:02.000Z,8.937
2019-04-05T00:22:01.000Z,8.937
2019-04-05T00:23:01.000Z,8.875
2019-04-05T00:24:01.000Z,8.875
2019-04-05T00:25:02.000Z,8.875
2019-04-05T00:26:01.000Z,8.875
2019-04-05T00:27:01.000Z,8.875
2019-04-05T00:28:02.000Z,8.875
2019-04-05T00:29:01.000Z,8.937
2019-04-05T00:30:02.000Z,8.875
2019-04-05T00:31:02.000Z,8.937
2019-04-05T00:32:01.000Z,8.937
2019-04-05T00:33:02.000Z,8.937
2019-04-05T00:34:02.000Z,8.875
2019-04-05T00:35:01.000Z,8.875
2019-04-05T00:36:01.000Z,8.812
2019-04-05T00:37:02.000Z,8.812
2019-04-05T00:38:02.000Z,8.75
2019-04-05T00:39:01.000Z,8.75
2019-04-05T00:40:01.000Z,8.75
2019-04-05T00:41:02.000Z,8.75
2019-04-05T00:42:01.000Z,8.75
2019-04-05T00:43:01.000Z,8.75
2019-04-05T00:44:02.000Z,8.75
2019-04-05T00:45:01.000Z,8.75
2019-04-05T00:46:02.000Z,8.75
2019-04-05T00:47:02.000Z,8.75
2019-04-05T00:48:01.000Z,8.75
2019-04-05T00:49:02.000Z,8.687
2019-04-05T00:50:01.000Z,8.687
2019-04-05T00:51:02.000Z,8.562
2019-04-05T00:52:01.000Z,8.562
2019-04-05T00:53:01.000Z,8.375
2019-04-05T00:54:01.000Z,8.25
2019-04-05T00:55:02.000Z,8.187
2019-04-05T00:56:01.000Z,8.125
2019-04-05T00:57:01.000Z,8.125
2019-04-05T00:58:02.000Z,8.125
2019-04-05T00:59:02.000Z,8.125
2019-04-05T01:00:01.000Z,8.062
2019-04-05T01:01:01.000Z,8.062
2019-04-05T01:02:02.000Z,8
2019-04-05T01:03:02.000Z,7.937
2019-04-05T01:04:02.000Z,7.812
2019-04-05T01:05:01.000Z,7.687
2019-04-05T01:06:02.000Z,7.562
2019-04-05T01:07:02.000Z,7.437
2019-04-05T01:08:01.000Z,7.437
2019-04-05T01:09:01.000Z,7.5
2019-04-05T01:10:02.000Z,7.5
2019-04-05T01:11:01.000Z,7.5
2019-04-05T01:12:02.000Z,7.437
2019-04-05T01:13:01.000Z,7.437
2019-04-05T01:14:02.000Z,7.375
2019-04-05T01:15:01.000Z,7.25
2019-04-05T01:16:01.000Z,7.25
2019-04-05T01:17:01.000Z,7.312
2019-04-05T01:18:01.000Z,7.312
2019-04-05T01:19:01.000Z,7.312
2019-04-05T01:20:02.000Z,7.375
2019-04-05T01:21:01.000Z,7.437
2019-04-05T01:22:02.000Z,7.375
2019-04-05T01:23:02.000Z,7.312
2019-04-05T01:24:02.000Z,7.312
2019-04-05T01:25:01.000Z,7.25
2019-04-05T01:26:01.000Z,7.125
2019-04-05T01:27:01.000Z,7.062
2019-04-05T01:28:01.000Z,6.937
2019-04-05T01:29:02.000Z,6.875
2019-04-05T01:30:02.000Z,6.875
2019-04-05T01:31:01.000Z,6.75
2019-04-05T01:32:01.000Z,6.687
2019-04-05T01:33:02.000Z,6.625
2019-04-05T01:34:01.000Z,6.625
2019-04-05T01:35:02.000Z,6.562
2019-04-05T01:36:02.000Z,6.562
2019-04-05T01:37:01.000Z,6.562
2019-04-05T01:38:01.000Z,6.625
2019-04-05T01:39:02.000Z,6.562
2019-04-05T01:40:02.000Z,6.625
2019-04-05T01:41:01.000Z,6.562
2019-04-05T01:42:02.000Z,6.562
2019-04-05T01:43:01.000Z,6.5
2019-04-05T01:44:01.000Z,6.562
2019-04-05T01:45:02.000Z,6.5
2019-04-05T01:46:01.000Z,6.5
2019-04-05T01:47:02.000Z,6.5
2019-04-05T01:48:01.000Z,6.5
2019-04-05T01:49:01.000Z,6.5
2019-04-05T01:50:02.000Z,6.5
2019-04-05T01:51:02.000Z,6.5
2019-04-05T01:52:01.000Z,6.5
2019-04-05T01:53:02.000Z,6.5
2019-04-05T01:54:01.000Z,6.5
2019-04-05T01:55:02.000Z,6.5
2019-04-05T01:56:01.000Z,6.437
2019-04-05T01:57:02.000Z,6.437
2019-04-05T01:58:01.000Z,6.437
2019-04-05T01:59:01.000Z,6.375
2019-04-05T02:00:02.000Z,6.375
2019-04-05T02:01:01.000Z,6.312
2019-04-05T02:02:02.000Z,6.187
2019-04-05T02:03:02.000Z,6.125
2019-04-05T02:04:02.000Z,6.062
2019-04-05T02:05:02.000Z,6
2019-04-05T02:06:01.000Z,6
2019-04-05T02:07:02.000Z,5.937
2019-04-05T02:08:01.000Z,5.937
2019-04-05T02:09:02.000Z,5.937
2019-04-05T02:10:01.000Z,5.937
2019-04-05T02:11:02.000Z,5.875
2019-04-05T02:12:01.000Z,5.812
2019-04-05T02:13:02.000Z,5.687
2019-04-05T02:14:01.000Z,5.687
2019-04-05T02:15:01.000Z,5.562
2019-04-05T02:16:01.000Z,5.562
2019-04-05T02:17:01.000Z,5.5
2019-04-05T02:18:01.000Z,5.5
2019-04-05T02:19:01.000Z,5.5
2019-04-05T02:20:01.000Z,5.5
2019-04-05T02:21:01.000Z,5.625
2019-04-05T02:22:02.000Z,5.75
2019-04-05T02:23:01.000Z,5.687
2019-04-05T02:24:02.000Z,5.687
2019-04-05T02:25:01.000Z,5.625
2019-04-05T02:26:01.000Z,5.625
2019-04-05T02:27:02.000Z,5.5
2019-04-05T02:28:01.000Z,5.437
2019-04-05T02:29:02.000Z,5.437
2019-04-05T02:30:01.000Z,5.312
2019-04-05T02:31:01.000Z,5.312
2019-04-05T02:32:02.000Z,5.312
2019-04-05T02:33:01.000Z,5.312
2019-04-05T02:34:02.000Z,5.312
2019-04-05T02:35:02.000Z,5.25
2019-04-05T02:36:01.000Z,5.187
2019-04-05T02:37:01.000Z,5.187
2019-04-05T02:38:02.000Z,5.187
2019-04-05T02:39:01.000Z,5.062
2019-04-05T02:40:02.000Z,5.062
2019-04-05T02:41:02.000Z,5
2019-04-05T02:42:01.000Z,5
2019-04-05T02:43:02.000Z,5
2019-04-05T02:44:01.000Z,5
2019-04-05T02:45:01.000Z,5
2019-04-05T02:46:02.000Z,5.062
2019-04-05T02:47:01.000Z,5.187
2019-04-05T02:48:01.000Z,5.187
2019-04-05T02:49:02.000Z,5.187
2019-04-05T02:50:01.000Z,5.125
2019-04-05T02:51:01.000Z,5.125
2019-04-05T02:52:01.000Z,5.062
2019-04-05T02:53:01.000Z,5.062
2019-04-05T02:54:02.000Z,5.062
2019-04-05T02:55:01.000Z,5.062
2019-04-05T02:56:01.000Z,5
2019-04-05T02:57:01.000Z,5
2019-04-05T02:58:02.000Z,4.937
2019-04-05T02:59:01.000Z,4.875
2019-04-05T03:00:02.000Z,4.875
2019-04-05T03:01:01.000Z,4.812
2019-04-05T03:03:01.000Z,4.687
2019-04-05T03:04:01.000Z,4.75
2019-04-05T03:05:01.000Z,4.687
2019-04-05T03:06:01.000Z,4.625
2019-04-05T03:07:02.000Z,4.75
2019-04-05T03:08:01.000Z,4.875
2019-04-05T03:09:01.000Z,4.937
2019-04-05T03:10:02.000Z,4.937
2019-04-05T03:11:02.000Z,4.937
2019-04-05T03:12:01.000Z,4.937
2019-04-05T03:13:02.000Z,5
2019-04-05T03:14:02.000Z,5
2019-04-05T03:15:01.000Z,4.937
2019-04-05T03:16:01.000Z,4.937
2019-04-05T03:17:01.000Z,4.875
2019-04-05T03:18:01.000Z,4.812
2019-04-05T03:19:02.000Z,4.812
2019-04-05T03:20:01.000Z,4.875
2019-04-05T03:21:02.000Z,4.875
2019-04-05T03:22:02.000Z,4.812
2019-04-05T03:23:01.000Z,4.75
2019-04-05T03:24:01.000Z,4.687
2019-04-05T03:25:01.000Z,4.687
2019-04-05T03:26:02.000Z,4.625
2019-04-05T03:27:02.000Z,4.625
2019-04-05T03:28:01.000Z,4.562
2019-04-05T03:29:01.000Z,4.5
2019-04-05T03:30:02.000Z,4.5
2019-04-05T03:31:01.000Z,4.5
2019-04-05T03:32:02.000Z,4.437
2019-04-05T03:33:02.000Z,4.437
2019-04-05T03:34:01.000Z,4.375
2019-04-05T03:35:01.000Z,4.375
2019-04-05T03:36:02.000Z,4.375
2019-04-05T03:37:01.000Z,4.312
2019-04-05T03:38:01.000Z,4.25
2019-04-05T03:39:02.000Z,4.375
2019-04-05T03:40:02.000Z,4.5
2019-04-05T03:41:01.000Z,4.5
2019-04-05T03:42:01.000Z,4.437
2019-04-05T03:43:01.000Z,4.375
2019-04-05T03:44:01.000Z,4.375
2019-04-05T03:45:01.000Z,4.437
2019-04-05T03:46:01.000Z,4.687
2019-04-05T03:47:01.000Z,4.812
2019-04-05T03:48:01.000Z,4.812
2019-04-05T03:49:01.000Z,4.812
2019-04-05T03:50:01.000Z,4.875
2019-04-05T03:51:01.000Z,5
2019-04-05T03:52:01.000Z,5
2019-04-05T03:53:02.000Z,4.875
2019-04-05T03:54:02.000Z,4.75
2019-04-05T03:55:01.000Z,4.625
2019-04-05T03:56:02.000Z,4.562
2019-04-05T03:57:01.000Z,4.562
2019-04-05T03:58:02.000Z,4.5
2019-04-05T03:59:01.000Z,4.5
2019-04-05T04:00:01.000Z,4.5
2019-04-05T04:01:02.000Z,4.5
2019-04-05T04:02:01.000Z,4.5
2019-04-05T04:03:01.000Z,4.5
2019-04-05T04:04:01.000Z,4.437
2019-04-05T04:05:01.000Z,4.375
2019-04-05T04:06:01.000Z,4.375
2019-04-05T04:07:01.000Z,4.312
2019-04-05T04:08:02.000Z,4.25
2019-04-05T04:09:02.000Z,4.187
2019-04-05T04:10:02.000Z,4.187
2019-04-05T04:11:01.000Z,4.062
2019-04-05T04:12:01.000Z,4.062
2019-04-05T04:13:01.000Z,4.062
2019-04-05T04:14:01.000Z,4
2019-04-05T04:15:01.000Z,4
2019-04-05T04:16:02.000Z,4
2019-04-05T04:17:02.000Z,4
2019-04-05T04:18:01.000Z,3.937
2019-04-05T04:19:01.000Z,3.937
2019-04-05T04:20:02.000Z,4
2019-04-05T04:21:01.000Z,4.125
2019-04-05T04:22:01.000Z,4.125
2019-04-05T04:23:02.000Z,4.125
2019-04-05T04:24:02.000Z,4.187
2019-04-05T04:25:01.000Z,4.125
2019-04-05T04:26:01.000Z,4.125
2019-04-05T04:27:02.000Z,4.125
2019-04-05T04:28:02.000Z,4.125
2019-04-05T04:29:01.000Z,4.125
2019-04-05T04:30:02.000Z,4.125
2019-04-05T04:31:01.000Z,4.062
2019-04-05T04:32:02.000Z,4.062
2019-04-05T04:33:01.000Z,4
2019-04-05T04:34:02.000Z,4
2019-04-05T04:35:01.000Z,3.937
2019-04-05T04:36:02.000Z,4
2019-04-05T04:37:01.000Z,4
2019-04-05T04:38:01.000Z,4.062
2019-04-05T04:40:01.000Z,4.125
2019-04-05T04:41:02.000Z,4.187
2019-04-05T04:42:02.000Z,4.25
2019-04-05T04:43:02.000Z,4.25
2019-04-05T04:44:01.000Z,4.25
2019-04-05T04:45:01.000Z,4.25
2019-04-05T04:46:02.000Z,4.25
2019-04-05T04:47:02.000Z,4.25
2019-04-05T04:48:01.000Z,4.375
2019-04-05T04:49:02.000Z,4.375
2019-04-05T04:50:01.000Z,4.687
2019-04-05T04:51:01.000Z,4.812
2019-04-05T04:52:02.000Z,5.062
2019-04-05T04:53:02.000Z,5.187
2019-04-05T04:54:01.000Z,5.187
2019-04-05T04:55:02.000Z,5.125
2019-04-05T04:56:01.000Z,5.125
2019-04-05T04:57:01.000Z,5.125
2019-04-05T04:58:02.000Z,5.187
2019-04-05T04:59:01.000Z,5.187
2019-04-05T05:00:01.000Z,5.187
2019-04-05T05:01:02.000Z,5.187
2019-04-05T05:02:01.000Z,5.25
2019-04-05T05:03:01.000Z,5.312
2019-04-05T05:04:02.000Z,5.312
2019-04-05T05:05:01.000Z,5.375
2019-04-05T05:06:02.000Z,5.375
2019-04-05T05:07:01.000Z,5.437
2019-04-05T05:08:02.000Z,5.5
2019-04-05T05:09:01.000Z,5.562
2019-04-05T05:10:02.000Z,5.625
2019-04-05T05:11:02.000Z,5.625
2019-04-05T05:12:02.000Z,5.625
2019-04-05T05:13:02.000Z,5.687
2019-04-05T05:14:01.000Z,5.687
2019-04-05T05:15:02.000Z,5.75
2019-04-05T05:16:01.000Z,5.75
2019-04-05T05:17:02.000Z,5.75
2019-04-05T05:18:01.000Z,5.812
2019-04-05T05:19:01.000Z,5.875
2019-04-05T05:20:02.000Z,5.875
2019-04-05T05:21:01.000Z,5.875
2019-04-05T05:22:01.000Z,5.937
2019-04-05T05:23:02.000Z,5.937
2019-04-05T05:24:01.000Z,6
2019-04-05T05:25:01.000Z,6
2019-04-05T05:26:02.000Z,6
2019-04-05T05:27:02.000Z,6
2019-04-05T05:28:01.000Z,6
2019-04-05T05:29:01.000Z,6
2019-04-05T05:30:01.000Z,6
2019-04-05T05:31:01.000Z,6
2019-04-05T05:32:02.000Z,6.062
2019-04-05T05:33:02.000Z,6.062
2019-04-05T05:34:01.000Z,6.125
2019-04-05T05:35:02.000Z,6.125
2019-04-05T05:36:01.000Z,6.187
2019-04-05T05:37:02.000Z,6.187
2019-04-05T05:38:01.000Z,6.187
2019-04-05T05:39:01.000Z,6.187
2019-04-05T05:40:02.000Z,6.25
2019-04-05T05:41:02.000Z,6.25
2019-04-05T05:42:01.000Z,6.25
2019-04-05T05:43:01.000Z,6.25
2019-04-05T05:44:02.000Z,6.312
2019-04-05T05:45:02.000Z,6.312
2019-04-05T05:46:02.000Z,6.312
2019-04-05T05:47:01.000Z,6.375
2019-04-05T05:48:02.000Z,6.375
2019-04-05T05:49:01.000Z,6.375
2019-04-05T05:50:01.000Z,6.25
2019-04-05T05:51:02.000Z,6.312
2019-04-05T05:52:01.000Z,6.312
2019-04-05T05:53:01.000Z,6.437
2019-04-05T05:54:02.000Z,6.5
2019-04-05T05:55:01.000Z,6.5
2019-04-05T05:56:01.000Z,6.5
2019-04-05T05:57:02.000Z,6.5
2019-04-05T05:58:01.000Z,6.5
2019-04-05T05:59:01.000Z,6.562
2019-04-05T06:00:02.000Z,6.562
2019-04-05T06:01:01.000Z,6.625
2019-04-05T06:02:02.000Z,6.625
2019-04-05T06:03:01.000Z,6.687
2019-04-05T06:04:02.000Z,6.687
2019-04-05T06:05:01.000Z,6.75
2019-04-05T06:06:01.000Z,6.75
2019-04-05T06:07:02.000Z,6.75
2019-04-05T06:08:01.000Z,6.812
2019-04-05T06:09:01.000Z,6.937
2019-04-05T06:10:01.000Z,6.937
2019-04-05T06:11:01.000Z,7
2019-04-05T06:12:01.000Z,7.062
2019-04-05T06:13:02.000Z,7.062
2019-04-05T06:14:01.000Z,7.125
2019-04-05T06:15:02.000Z,7.187
2019-04-05T06:16:01.000Z,7.187
2019-04-05T06:17:01.000Z,7.25
2019-04-05T06:18:02.000Z,7.375
2019-04-05T06:19:01.000Z,7.437
2019-04-05T06:20:01.000Z,7.437
2019-04-05T06:21:01.000Z,7.437
2019-04-05T06:22:01.000Z,7.562
2019-04-05T06:23:02.000Z,7.562
2019-04-05T06:24:01.000Z,7.625
2019-04-05T06:25:02.000Z,7.625
2019-04-05T06:26:01.000Z,7.687
2019-04-05T06:27:02.000Z,7.687
2019-04-05T06:28:01.000Z,7.75
2019-04-05T06:29:02.000Z,7.812
2019-04-05T06:30:01.000Z,7.875
2019-04-05T06:31:02.000Z,8
2019-04-05T06:32:01.000Z,8.062
2019-04-05T06:33:02.000Z,8.125
2019-04-05T06:34:01.000Z,8.125
2019-04-05T06:35:02.000Z,8.062
2019-04-05T06:36:01.000Z,8.125
2019-04-05T06:37:01.000Z,8.062
2019-04-05T06:38:01.000Z,8.125
2019-04-05T06:39:02.000Z,8.125
2019-04-05T06:40:01.000Z,8.125
2019-04-05T06:41:01.000Z,8.125
2019-04-05T06:42:01.000Z,8.187
2019-04-05T06:43:01.000Z,8.187
2019-04-05T06:44:02.000Z,8.25
2019-04-05T06:45:02.000Z,8.187
2019-04-05T06:46:01.000Z,8.187
2019-04-05T06:47:02.000Z,8.25
2019-04-05T06:48:02.000Z,8.312
2019-04-05T06:49:01.000Z,8.375
2019-04-05T06:50:02.000Z,8.437
2019-04-05T06:51:01.000Z,8.5
2019-04-05T06:52:02.000Z,8.562
2019-04-05T06:53:01.000Z,8.562
2019-04-05T06:54:02.000Z,8.625
2019-04-05T06:55:01.000Z,8.687
2019-04-05T06:56:02.000Z,8.75
2019-04-05T06:57:02.000Z,8.812
2019-04-05T06:58:01.000Z,8.812
2019-04-05T06:59:01.000Z,8.875
2019-04-05T07:00:02.000Z,8.875
2019-04-05T07:01:01.000Z,8.875
2019-04-05T07:02:02.000Z,8.937
2019-04-05T07:03:01.000Z,8.937
2019-04-05T07:04:02.000Z,8.937
2019-04-05T07:06:01.000Z,9
2019-04-05T07:07:01.000Z,9
2019-04-05T07:08:01.000Z,8.937
2019-04-05T07:09:01.000Z,8.937
2019-04-05T07:10:02.000Z,8.75
2019-04-05T07:11:01.000Z,8.562
2019-04-05T07:12:01.000Z,8.375
2019-04-05T07:13:01.000Z,8.25
2019-04-05T07:14:01.000Z,8.25
2019-04-05T07:15:02.000Z,8.312
2019-04-05T07:16:01.000Z,8.375
2019-04-05T07:17:02.000Z,8.437
2019-04-05T07:18:02.000Z,8.437
2019-04-05T07:19:01.000Z,8.562
2019-04-05T07:20:02.000Z,8.562
2019-04-05T07:21:01.000Z,8.562
2019-04-05T07:22:01.000Z,8.5
2019-04-05T07:23:02.000Z,8.437
2019-04-05T07:24:01.000Z,8.5
2019-04-05T07:25:01.000Z,8.562
2019-04-05T07:26:02.000Z,8.562
2019-04-05T07:27:01.000Z,8.625
2019-04-05T07:28:02.000Z,8.625
2019-04-05T07:29:01.000Z,8.625
2019-04-05T07:30:01.000Z,8.687
2019-04-05T07:31:02.000Z,8.75
2019-04-05T07:32:01.000Z,8.687
2019-04-05T07:33:02.000Z,8.687
2019-04-05T07:34:01.000Z,8.75
2019-04-05T07:35:01.000Z,8.75
2019-04-05T07:36:02.000Z,8.75
2019-04-05T07:37:01.000Z,8.75
2019-04-05T07:38:01.000Z,8.75
2019-04-05T07:39:01.000Z,8.625
2019-04-05T07:40:02.000Z,8.562
2019-04-05T07:41:01.000Z,8.562
2019-04-05T07:42:02.000Z,8.625
2019-04-05T07:43:01.000Z,8.687
2019-04-05T07:44:01.000Z,8.75
2019-04-05T07:45:02.000Z,8.812
2019-04-05T07:46:02.000Z,8.812
2019-04-05T07:47:02.000Z,8.937
2019-04-05T07:48:02.000Z,9.062
2019-04-05T07:49:01.000Z,9.125
2019-04-05T07:50:02.000Z,9.187
2019-04-05T07:51:01.000Z,9.25
2019-04-05T07:52:02.000Z,9.25
2019-04-05T07:53:02.000Z,9.25
2019-04-05T07:54:01.000Z,9.312
2019-04-05T07:55:01.000Z,9.312
2019-04-05T07:56:02.000Z,9.375
2019-04-05T07:57:02.000Z,9.375
2019-04-05T07:58:01.000Z,9.375
2019-04-05T07:59:02.000Z,9.375
2019-04-05T08:00:01.000Z,9.437
2019-04-05T08:01:01.000Z,9.5
2019-04-05T08:02:02.000Z,9.437
2019-04-05T08:03:01.000Z,9.437
2019-04-05T08:04:01.000Z,9.437
2019-04-05T08:05:02.000Z,9.312
2019-04-05T08:06:02.000Z,9.312
2019-04-05T08:07:02.000Z,9.375
2019-04-05T08:08:02.000Z,9.437
2019-04-05T08:09:01.000Z,9.5
2019-04-05T08:10:02.000Z,9.562
2019-04-05T08:11:01.000Z,9.625
2019-04-05T08:12:02.000Z,9.625
2019-04-05T08:13:01.000Z,9.687
2019-04-05T08:14:02.000Z,9.687
2019-04-05T08:15:01.000Z,9.687
2019-04-05T08:16:01.000Z,9.687
2019-04-05T08:17:02.000Z,9.625
2019-04-05T08:18:01.000Z,9.562
2019-04-05T08:19:02.000Z,9.5
2019-04-05T08:20:01.000Z,9.5
2019-04-05T08:21:01.000Z,9.375
2019-04-05T08:22:02.000Z,9.25
2019-04-05T08:23:01.000Z,9.125
2019-04-05T08:24:01.000Z,9.125
2019-04-05T08:25:01.000Z,9.062
2019-04-05T08:26:01.000Z,9
2019-04-05T08:27:01.000Z,8.875
2019-04-05T08:28:01.000Z,8.75
2019-04-05T08:29:02.000Z,8.687
2019-04-05T08:30:02.000Z,8.562
2019-04-05T08:31:01.000Z,8.625
2019-04-05T08:32:01.000Z,8.562
2019-04-05T08:33:01.000Z,8.625
2019-04-05T08:34:01.000Z,8.687
2019-04-05T08:35:01.000Z,8.812
2019-04-05T08:36:02.000Z,8.875
2019-04-05T08:37:02.000Z,8.937
2019-04-05T08:38:01.000Z,8.937
2019-04-05T08:39:02.000Z,9.062
2019-04-05T08:40:02.000Z,9.125
2019-04-05T08:41:01.000Z,9.187
2019-04-05T08:42:01.000Z,9.187
2019-04-05T08:43:02.000Z,9.25
2019-04-05T08:44:01.000Z,9.25
2019-04-05T08:45:02.000Z,9.25
2019-04-05T08:46:01.000Z,9.312
2019-04-05T08:47:01.000Z,9.312
2019-04-05T08:48:02.000Z,9.312
2019-04-05T08:49:01.000Z,9.312
2019-04-05T08:50:01.000Z,9.312
2019-04-05T08:51:02.000Z,9.312
2019-04-05T08:52:02.000Z,9.312
2019-04-05T08:53:01.000Z,9.437
2019-04-05T08:54:01.000Z,9.5
2019-04-05T08:55:02.000Z,9.625
2019-04-05T08:56:01.000Z,9.625
2019-04-05T08:57:01.000Z,9.625
2019-04-05T08:58:01.000Z,9.687
2019-04-05T08:59:02.000Z,9.687
2019-04-05T09:00:01.000Z,9.75
2019-04-05T09:01:01.000Z,9.812
2019-04-05T09:02:01.000Z,9.875
2019-04-05T09:03:02.000Z,9.812
2019-04-05T09:04:01.000Z,9.812
2019-04-05T09:05:01.000Z,9.875
2019-04-05T09:06:01.000Z,9.937
2019-04-05T09:07:02.000Z,10
2019-04-05T09:08:02.000Z,10.062
2019-04-05T09:09:02.000Z,10.062
2019-04-05T09:10:01.000Z,10.062
2019-04-05T09:11:02.000Z,10.062
2019-04-05T09:12:01.000Z,10.062
2019-04-05T09:13:01.000Z,10.062
2019-04-05T09:14:02.000Z,9.937
2019-04-05T09:15:02.000Z,9.875
2019-04-05T09:16:01.000Z,9.75
2019-04-05T09:17:02.000Z,9.562
2019-04-05T09:18:01.000Z,9.5
2019-04-05T09:19:01.000Z,9.562
2019-04-05T09:20:02.000Z,9.562
2019-04-05T09:21:01.000Z,9.562
2019-04-05T09:22:02.000Z,9.562
2019-04-05T09:23:02.000Z,9.562
2019-04-05T09:24:01.000Z,9.687
2019-04-05T09:25:02.000Z,9.687
2019-04-05T09:26:02.000Z,9.75
2019-04-05T09:27:01.000Z,9.812
2019-04-05T09:28:01.000Z,9.812
2019-04-05T09:29:01.000Z,9.875
2019-04-05T09:30:02.000Z,9.812
2019-04-05T09:31:01.000Z,9.812
2019-04-05T09:32:01.000Z,9.687
2019-04-05T09:33:02.000Z,9.687
2019-04-05T09:34:01.000Z,9.75
2019-04-05T09:35:02.000Z,9.812
2019-04-05T09:36:02.000Z,9.875
2019-04-05T09:37:02.000Z,9.937
2019-04-05T09:38:01.000Z,10
2019-04-05T09:39:01.000Z,10
2019-04-05T09:40:02.000Z,10.125
2019-04-05T09:41:01.000Z,10.187
2019-04-05T09:42:01.000Z,10.25
2019-04-05T09:43:02.000Z,10.312
2019-04-05T09:44:01.000Z,10.312
2019-04-05T09:45:02.000Z,10.375
2019-04-05T09:46:01.000Z,10.375
2019-04-05T09:47:02.000Z,10.312
2019-04-05T09:48:02.000Z,10.375
2019-04-05T09:49:01.000Z,10.437
2019-04-05T09:50:01.000Z,10.437
2019-04-05T09:51:01.000Z,10.375
2019-04-05T09:52:01.000Z,10.312
2019-04-05T09:53:02.000Z,10.125
2019-04-05T09:54:01.000Z,10.125
2019-04-05T09:55:01.000Z,10.062
2019-04-05T09:56:01.000Z,9.937
2019-04-05T09:57:01.000Z,9.875
2019-04-05T09:58:01.000Z,9.875
2019-04-05T09:59:01.000Z,9.937
2019-04-05T10:00:01.000Z,9.937
2019-04-05T10:01:01.000Z,9.937
2019-04-05T10:02:02.000Z,10
2019-04-05T10:03:01.000Z,10.125
2019-04-05T10:04:02.000Z,10.187
2019-04-05T10:05:01.000Z,10.187
2019-04-05T10:06:02.000Z,10.25
2019-04-05T10:07:02.000Z,10.125
2019-04-05T10:08:01.000Z,9.937
2019-04-05T10:09:01.000Z,9.812
2019-04-05T10:10:02.000Z,9.812
2019-04-05T10:11:01.000Z,9.812
2019-04-05T10:12:01.000Z,9.812
2019-04-05T10:13:01.000Z,9.812
2019-04-05T10:14:01.000Z,9.875
2019-04-05T10:15:01.000Z,9.937
2019-04-05T10:16:02.000Z,10
2019-04-05T10:17:01.000Z,10.062
2019-04-05T10:18:01.000Z,10.187
2019-04-05T10:19:01.000Z,10.125
2019-04-05T10:20:01.000Z,10.187
2019-04-05T10:21:02.000Z,10.187
2019-04-05T10:22:02.000Z,10.25
2019-04-05T10:23:01.000Z,10.187
2019-04-05T10:24:01.000Z,10.187
2019-04-05T10:25:02.000Z,10.187
2019-04-05T10:26:01.000Z,10.187
2019-04-05T10:27:01.000Z,10.25
2019-04-05T10:28:01.000Z,10.312
2019-04-05T10:29:01.000Z,10.312
2019-04-05T10:30:01.000Z,10.375
2019-04-05T10:31:02.000Z,10.312
2019-04-05T10:32:01.000Z,10.25
2019-04-05T10:33:01.000Z,10.187
2019-04-05T10:34:01.000Z,10.187
2019-04-05T10:35:01.000Z,10.062
2019-04-05T10:36:02.000Z,10
2019-04-05T10:37:02.000Z,10
2019-04-05T10:38:01.000Z,10.062
2019-04-05T10:39:01.000Z,10.125
2019-04-05T10:40:01.000Z,10.062
2019-04-05T10:41:02.000Z,10
2019-04-05T10:42:02.000Z,10.062
2019-04-05T10:43:01.000Z,10.125
2019-04-05T10:44:01.000Z,10.25
2019-04-05T10:45:01.000Z,10.312
2019-04-05T10:46:02.000Z,10.5
2019-04-05T10:47:01.000Z,10.687
2019-04-05T10:48:01.000Z,10.875
2019-04-05T10:49:01.000Z,11
2019-04-05T10:50:02.000Z,11.125
2019-04-05T10:51:01.000Z,11.312
2019-04-05T10:52:02.000Z,11.5
2019-04-05T10:53:02.000Z,11.625
2019-04-05T10:54:01.000Z,11.812
2019-04-05T10:55:01.000Z,11.875
2019-04-05T10:56:01.000Z,11.937
2019-04-05T10:57:02.000Z,12
2019-04-05T10:58:01.000Z,12
2019-04-05T10:59:01.000Z,12.062
2019-04-05T11:00:01.000Z,12
2019-04-05T11:01:01.000Z,11.875
2019-04-05T11:02:02.000Z,11.75
2019-04-05T11:03:01.000Z,11.875
2019-04-05T11:04:01.000Z,11.937
2019-04-05T11:05:01.000Z,11.937
2019-04-05T11:06:02.000Z,12
2019-04-05T11:07:02.000Z,12.125
2019-04-05T11:08:01.000Z,12.187
2019-04-05T11:09:01.000Z,12.062
2019-04-05T11:10:02.000Z,12.062
2019-04-05T11:11:01.000Z,12.062
2019-04-05T11:12:02.000Z,12.062
2019-04-05T11:13:02.000Z,12.062
2019-04-05T11:14:01.000Z,12.125
2019-04-05T11:15:02.000Z,12.125
2019-04-05T11:16:01.000Z,12.187
2019-04-05T11:17:02.000Z,12.25
2019-04-05T11:18:01.000Z,12.25
2019-04-05T11:19:01.000Z,12.25
2019-04-05T11:20:01.000Z,12.125
2019-04-05T11:21:01.000Z,12.125
2019-04-05T11:22:01.000Z,12.187
2019-04-05T11:23:02.000Z,12.312
2019-04-05T11:24:01.000Z,12.375
2019-04-05T11:25:01.000Z,12.437
2019-04-05T11:26:02.000Z,12.562
2019-04-05T11:27:01.000Z,12.5
2019-04-05T11:28:01.000Z,12.562
2019-04-05T11:29:02.000Z,12.5
2019-04-05T11:30:02.000Z,12.562
2019-04-05T11:31:01.000Z,12.625
2019-04-05T11:32:02.000Z,12.562
2019-04-05T11:33:01.000Z,12.5
2019-04-05T11:34:01.000Z,12.5
2019-04-05T11:35:02.000Z,12.5
2019-04-05T11:36:01.000Z,12.562
2019-04-05T11:37:01.000Z,12.625
2019-04-05T11:38:02.000Z,12.625
2019-04-05T11:39:02.000Z,12.625
2019-04-05T11:40:02.000Z,12.75
2019-04-05T11:41:01.000Z,12.75
2019-04-05T11:42:01.000Z,12.812
2019-04-05T11:43:02.000Z,12.875
2019-04-05T11:44:01.000Z,12.875
2019-04-05T11:45:01.000Z,12.937
2019-04-05T11:46:01.000Z,12.937
2019-04-05T11:47:01.000Z,12.875
2019-04-05T11:48:02.000Z,12.812
2019-04-05T11:49:02.000Z,12.875
2019-04-05T11:50:02.000Z,12.875
2019-04-05T11:51:01.000Z,12.687
2019-04-05T11:52:01.000Z,12.75
2019-04-05T11:53:01.000Z,12.812
2019-04-05T11:54:02.000Z,12.812
2019-04-05T11:55:02.000Z,12.875
2019-04-05T11:56:01.000Z,12.812
2019-04-05T11:57:01.000Z,12.937
2019-04-05T11:58:02.000Z,13.062
2019-04-05T11:59:01.000Z,13.125
2019-04-05T12:00:02.000Z,13.187
2019-04-05T12:01:01.000Z,13.25
2019-04-05T12:02:01.000Z,13.312
2019-04-05T12:03:02.000Z,13.25
2019-04-05T12:04:02.000Z,13.312
2019-04-05T12:05:01.000Z,13.312
2019-04-05T12:06:02.000Z,13.375
2019-04-05T12:07:01.000Z,13.375
2019-04-05T12:08:01.000Z,13.375
2019-04-05T12:09:02.000Z,13.312
2019-04-05T12:10:02.000Z,13.437
2019-04-05T12:11:01.000Z,13.5
2019-04-05T12:12:01.000Z,13.5
2019-04-05T12:13:01.000Z,13.562
2019-04-05T12:14:02.000Z,13.562
2019-04-05T12:15:01.000Z,13.625
2019-04-05T12:16:01.000Z,13.625
2019-04-05T12:17:01.000Z,13.687
2019-04-05T12:18:01.000Z,13.687
2019-04-05T12:19:01.000Z,13.687
2019-04-05T12:20:02.000Z,13.812
2019-04-05T12:21:01.000Z,14
2019-04-05T12:22:02.000Z,14
2019-04-05T12:23:01.000Z,14.125
2019-04-05T12:24:01.000Z,14.125
2019-04-05T12:25:01.000Z,14.187
2019-04-05T12:26:01.000Z,14.062
2019-04-05T12:27:02.000Z,14.062
2019-04-05T12:28:02.000Z,14.062
2019-04-05T12:29:02.000Z,14.187
2019-04-05T12:30:02.000Z,14.312
2019-04-05T12:31:01.000Z,14.5
2019-04-05T12:32:01.000Z,14.625
2019-04-05T12:33:02.000Z,14.937
2019-04-05T12:34:01.000Z,15.25
2019-04-05T12:35:01.000Z,15.375
2019-04-05T12:36:02.000Z,15.562
2019-04-05T12:37:01.000Z,15.75
2019-04-05T12:38:01.000Z,16.062
2019-04-05T12:39:01.000Z,16.062
2019-04-05T12:40:02.000Z,16.062
2019-04-05T12:41:01.000Z,15.937
2019-04-05T12:42:02.000Z,16
2019-04-05T12:43:02.000Z,16
2019-04-05T12:44:01.000Z,16
2019-04-05T12:45:02.000Z,16
2019-04-05T12:46:01.000Z,16.062
2019-04-05T12:47:01.000Z,16
2019-04-05T12:48:02.000Z,16
2019-04-05T12:49:01.000Z,15.937
2019-04-05T12:50:01.000Z,15.937
2019-04-05T12:51:01.000Z,16
2019-04-05T12:52:02.000Z,16.062
2019-04-05T12:53:02.000Z,16.125
2019-04-05T12:54:01.000Z,16.187
2019-04-05T12:55:02.000Z,16.187
2019-04-05T12:56:02.000Z,16.187
2019-04-05T12:57:01.000Z,16.25
2019-04-05T12:58:02.000Z,16.25
2019-04-05T12:59:01.000Z,16.187
2019-04-05T13:00:01.000Z,16.312
2019-04-05T13:01:01.000Z,16.312
2019-04-05T13:02:02.000Z,16.375
2019-04-05T13:03:02.000Z,16.625